createdAt,value
2023-03-06T00:00:56.980Z,100308.97
2023-03-06T00:03:27.660Z,100309.84
2023-03-06T00:05:57.350Z,100308.97
2023-03-06T00:08:25.993Z,100311.56
2023-03-06T00:10:52.922Z,100302.13
2023-03-06T00:13:21.500Z,100295.22
2023-03-06T00:15:49.135Z,100305.50
2023-03-06T00:18:16.090Z,100298.63
2023-03-06T00:20:44.478Z,100301.16
2023-03-06T00:23:11.598Z,100302.06
2023-03-06T00:25:42.261Z,100296.84
2023-03-06T00:28:09.130Z,100294.22
2023-03-06T00:30:36.645Z,100289.97
2023-03-06T00:33:03.520Z,100292.56
2023-03-06T00:35:30.673Z,100291.69
2023-03-06T00:37:59.686Z,100288.28
2023-03-06T00:40:26.726Z,100293.50
2023-03-06T00:42:53.620Z,100287.50
2023-03-06T00:45:20.598Z,100288.34
2023-03-06T00:47:47.549Z,100292.63
2023-03-06T00:50:15.121Z,100284.03
2023-03-06T00:52:42.121Z,100284.13
2023-03-06T00:55:10.229Z,100284.13
2023-03-06T00:57:37.316Z,100285.03
2023-03-06T01:00:05.765Z,100279.09
2023-03-06T01:02:32.838Z,100279.97
2023-03-06T01:04:59.826Z,100280.03
2023-03-06T01:07:27.768Z,100271.47
2023-03-06T01:09:55.022Z,100260.16
2023-03-06T01:12:23.494Z,100262.09
2023-03-06T01:14:51.104Z,100261.31
2023-03-06T01:17:18.079Z,100260.50
2023-03-06T01:19:44.954Z,100261.31
2023-03-06T01:22:13.871Z,100251.88
2023-03-06T01:24:40.732Z,100251.94
2023-03-06T01:27:07.610Z,100247.53
2023-03-06T01:29:34.489Z,100249.31
2023-03-06T01:32:01.491Z,100249.38
2023-03-06T01:34:28.644Z,100244.22
2023-03-06T01:36:55.513Z,100238.19
2023-03-06T01:39:22.426Z,100237.34
2023-03-06T01:41:49.481Z,100233.06
2023-03-06T01:44:16.402Z,100236.41
2023-03-06T01:46:45.478Z,100239.91
2023-03-06T01:49:21.558Z,100233.84
2023-03-06T01:51:54.584Z,100241.59
2023-03-06T01:54:28.681Z,100235.63
2023-03-06T01:57:05.909Z,100219.09
2023-03-06T01:59:35.037Z,100221.00
2023-03-06T02:02:03.627Z,100222.75
2023-03-06T02:04:30.661Z,100218.41
2023-03-06T02:07:00.497Z,100218.47
2023-03-06T02:09:30.146Z,100224.47
2023-03-06T02:11:57.235Z,100218.41
2023-03-06T02:14:24.306Z,100216.75
2023-03-06T02:16:51.720Z,100209.81
2023-03-06T02:19:50.429Z,100202.09
2023-03-06T02:22:19.299Z,100201.97
2023-03-06T02:24:57.209Z,100209.81
2023-03-06T02:27:26.123Z,100205.53
2023-03-06T02:29:55.597Z,100205.53
2023-03-06T02:32:22.645Z,100202.16
2023-03-06T02:34:54.852Z,100203.03
2023-03-06T02:37:24.216Z,100206.47
2023-03-06T02:40:09.629Z,100203.88
2023-03-06T02:42:36.594Z,100202.22
2023-03-06T02:45:07.504Z,100200.38
2023-03-06T02:47:34.415Z,100202.16
2023-03-06T02:50:01.342Z,100188.22
2023-03-06T02:52:28.390Z,100200.44
2023-03-06T02:54:56.139Z,100204.69
2023-03-06T02:57:23.125Z,100193.47
2023-03-06T02:59:50.052Z,100193.41
2023-03-06T03:02:16.949Z,100194.22
2023-03-06T03:04:44.695Z,100186.50
2023-03-06T03:07:11.742Z,100191.66
2023-03-06T03:09:39.208Z,100189.06
2023-03-06T03:12:07.594Z,100182.09
2023-03-06T03:14:34.826Z,100174.34
2023-03-06T03:17:03.119Z,100170.03
2023-03-06T03:19:30.180Z,100171.69
2023-03-06T03:21:57.151Z,100175.09
2023-03-06T03:24:24.557Z,100171.59
2023-03-06T03:26:51.906Z,100162.84
2023-03-06T03:29:20.652Z,100174.97
2023-03-06T03:31:48.533Z,100172.38
2023-03-06T03:34:15.792Z,100167.25
2023-03-06T03:36:43.246Z,100166.31
2023-03-06T03:39:11.945Z,100162.78
2023-03-06T03:41:39.295Z,100156.72
2023-03-06T03:44:08.721Z,100143.78
2023-03-06T03:46:36.517Z,100154.16
2023-03-06T03:49:06.030Z,100159.28
2023-03-06T03:51:33.444Z,100155.91
2023-03-06T03:54:00.725Z,100155.84
2023-03-06T03:56:32.252Z,100154.09
2023-03-06T03:59:04.345Z,100160.94
2023-03-06T04:01:39.638Z,100155.78
2023-03-06T04:04:08.083Z,100155.78
2023-03-06T04:06:35.290Z,100154.94
2023-03-06T04:09:04.520Z,100154.06
2023-03-06T04:11:31.893Z,100152.31
2023-03-06T04:13:59.162Z,100148.03
2023-03-06T04:16:26.344Z,100143.72
2023-03-06T04:18:53.357Z,100141.16
2023-03-06T04:21:21.152Z,100139.41
2023-03-06T04:23:48.235Z,100137.59
2023-03-06T04:26:15.283Z,100126.50
2023-03-06T04:28:42.190Z,100129.94
2023-03-06T04:31:12.378Z,100122.16
2023-03-06T04:33:39.479Z,100123.00
2023-03-06T04:36:07.410Z,100118.72
2023-03-06T04:38:35.521Z,100111.78
2023-03-06T04:41:06.068Z,100116.03
2023-03-06T04:43:33.184Z,100104.00
2023-03-06T04:46:00.121Z,100103.97
2023-03-06T04:48:27.096Z,100107.34
2023-03-06T04:50:53.956Z,100106.47
2023-03-06T04:53:21.775Z,100109.03
2023-03-06T04:55:48.639Z,100104.69
2023-03-06T04:58:15.595Z,100113.25
2023-03-06T05:00:42.506Z,100112.41
2023-03-06T05:03:15.029Z,100108.97
2023-03-06T05:05:42.304Z,100106.41
2023-03-06T05:08:15.500Z,100104.69
2023-03-06T05:10:43.661Z,100108.13
2023-03-06T05:13:10.820Z,100111.59
2023-03-06T05:15:40.603Z,100114.19
2023-03-06T05:18:07.491Z,100113.34
2023-03-06T05:20:34.502Z,100109.97
2023-03-06T05:23:01.940Z,100103.84
2023-03-06T05:25:28.812Z,100101.34
2023-03-06T05:27:55.756Z,100106.59
2023-03-06T05:30:23.315Z,100109.16
2023-03-06T05:32:50.875Z,100110.03
2023-03-06T05:35:23.419Z,100104.03
2023-03-06T05:37:50.604Z,100102.31
2023-03-06T05:40:18.511Z,100115.16
2023-03-06T05:42:45.509Z,100111.69
2023-03-06T05:45:12.598Z,100112.53
2023-03-06T05:47:39.519Z,100122.03
2023-03-06T05:50:08.298Z,100116.03
2023-03-06T05:52:35.236Z,100117.75
2023-03-06T05:55:02.208Z,100092.63
2023-03-06T05:57:29.081Z,100113.50
2023-03-06T05:59:55.987Z,100110.88
2023-03-06T06:02:22.881Z,100108.38
2023-03-06T06:04:49.795Z,100105.00
2023-03-06T06:07:17.560Z,100107.56
2023-03-06T06:09:47.986Z,100107.59
2023-03-06T06:12:15.874Z,100099.84
2023-03-06T06:14:42.761Z,100100.72
2023-03-06T06:17:09.666Z,100097.34
2023-03-06T06:19:36.542Z,100095.69
2023-03-06T06:22:03.782Z,100112.91
2023-03-06T06:24:32.092Z,100101.81
2023-03-06T06:27:01.941Z,100099.22
2023-03-06T06:29:30.511Z,100100.97
2023-03-06T06:31:57.740Z,100110.53
2023-03-06T06:34:25.126Z,100099.31
2023-03-06T06:36:53.656Z,100106.34
2023-03-06T06:39:23.255Z,100107.25
2023-03-06T06:42:03.016Z,100111.59
2023-03-06T06:44:37.632Z,100104.81
2023-03-06T06:47:24.053Z,100114.25
2023-03-06T06:49:54.271Z,100103.16
2023-03-06T06:52:21.991Z,100101.56
2023-03-06T06:54:48.931Z,100102.47
2023-03-06T06:57:16.210Z,100099.13
2023-03-06T06:59:43.303Z,100101.81
2023-03-06T07:02:13.309Z,100101.88
2023-03-06T07:04:52.207Z,100097.59
2023-03-06T07:07:28.701Z,100085.44
2023-03-06T07:09:55.889Z,100100.19
2023-03-06T07:12:22.800Z,100100.25
2023-03-06T07:14:49.682Z,100101.97
2023-03-06T07:17:16.563Z,100107.13
2023-03-06T07:19:43.411Z,100096.91
2023-03-06T07:22:10.288Z,100097.81
2023-03-06T07:24:37.142Z,100100.44
2023-03-06T07:27:04.089Z,100101.41
2023-03-06T07:29:32.917Z,100094.41
2023-03-06T07:32:00.051Z,100091.97
2023-03-06T07:34:26.963Z,100100.72
2023-03-06T07:36:53.803Z,100107.69
2023-03-06T07:39:21.341Z,100101.78
2023-03-06T07:41:48.204Z,100112.19
2023-03-06T07:44:15.099Z,100106.28
2023-03-06T07:46:42.004Z,100097.84
2023-03-06T07:49:08.919Z,100100.53
2023-03-06T07:51:35.745Z,100095.44
2023-03-06T07:54:02.602Z,100102.41
2023-03-06T07:56:29.443Z,100104.06
2023-03-06T07:58:57.175Z,100107.56
2023-03-06T08:01:24.196Z,100112.66
2023-03-06T08:03:51.614Z,100105.72
2023-03-06T08:06:25.867Z,100106.59
2023-03-06T08:08:54.815Z,100106.59
2023-03-06T08:11:28.160Z,100107.50
2023-03-06T08:13:56.137Z,100109.28
2023-03-06T08:16:26.921Z,100103.22
2023-03-06T08:18:54.462Z,100105.94
2023-03-06T08:21:24.882Z,100110.34
2023-03-06T08:23:52.600Z,100104.28
2023-03-06T08:26:23.599Z,100105.28
2023-03-06T08:28:56.571Z,100106.19
2023-03-06T08:31:37.835Z,100100.28
2023-03-06T08:34:15.877Z,100106.34
2023-03-06T08:36:42.804Z,100095.94
2023-03-06T08:39:09.834Z,100108.91
2023-03-06T08:41:37.850Z,100106.28
2023-03-06T08:44:05.560Z,100111.50
2023-03-06T08:46:33.651Z,100104.56
2023-03-06T08:49:00.698Z,100106.34
2023-03-06T08:51:28.939Z,100101.19
2023-03-06T08:53:57.315Z,100110.72
2023-03-06T08:56:30.256Z,100105.72
2023-03-06T08:59:01.147Z,100106.72
2023-03-06T09:01:31.826Z,100110.25
2023-03-06T09:04:01.535Z,100110.41
2023-03-06T09:06:32.886Z,100113.13
2023-03-06T09:09:00.940Z,100107.19
2023-03-06T09:11:28.710Z,100114.16
2023-03-06T09:13:57.236Z,100111.72
2023-03-06T09:16:26.514Z,100116.19
2023-03-06T09:18:54.242Z,100110.19
2023-03-06T09:21:22.872Z,100109.38
2023-03-06T09:23:50.318Z,100113.75
2023-03-06T09:26:17.678Z,100123.31
2023-03-06T09:28:44.887Z,100113.84
2023-03-06T09:31:18.728Z,100132.94
2023-03-06T09:33:46.604Z,100120.13
2023-03-06T09:36:20.924Z,100113.31
2023-03-06T09:38:49.778Z,100122.88
2023-03-06T09:41:37.699Z,100119.44
2023-03-06T09:44:14.881Z,100105.69
2023-03-06T09:47:07.075Z,100115.94
2023-03-06T09:50:05.020Z,100109.81
2023-03-06T09:52:46.742Z,100115.84
2023-03-06T09:55:24.873Z,100112.44
2023-03-06T09:58:02.475Z,100114.16
2023-03-06T10:01:19.768Z,100110.63
2023-03-06T10:04:08.640Z,100110.50
2023-03-06T10:06:51.660Z,100114.78
2023-03-06T10:09:45.251Z,100119.91
2023-03-06T10:12:26.114Z,100112.97
2023-03-06T10:15:29.882Z,100119.81
2023-03-06T10:17:57.453Z,100113.69
2023-03-06T10:20:48.867Z,100114.59
2023-03-06T10:23:50.664Z,100113.69
2023-03-06T10:26:24.330Z,100117.13
2023-03-06T10:29:13.039Z,100115.44
2023-03-06T10:31:51.629Z,100106.88
2023-03-06T10:34:37.301Z,100104.28
2023-03-06T10:37:19.682Z,100108.69
2023-03-06T10:39:47.313Z,100109.63
2023-03-06T10:42:14.197Z,100095.88
2023-03-06T10:44:41.131Z,100099.44
2023-03-06T10:47:29.349Z,100096.13
2023-03-06T10:50:24.106Z,100095.44
2023-03-06T10:53:11.072Z,100090.38
2023-03-06T10:55:38.425Z,100093.09
2023-03-06T10:58:28.305Z,100089.66
2023-03-06T11:01:22.318Z,100088.06
2023-03-06T11:03:49.743Z,100098.44
2023-03-06T11:06:35.150Z,100090.66
2023-03-06T11:09:24.990Z,100076.78
2023-03-06T11:11:52.658Z,100084.69
2023-03-06T11:14:23.111Z,100085.59
2023-03-06T11:16:53.929Z,100087.34
2023-03-06T11:19:29.423Z,100074.44
2023-03-06T11:22:17.004Z,100075.34
2023-03-06T11:24:49.714Z,100075.41
2023-03-06T11:27:34.658Z,100083.16
2023-03-06T11:30:36.124Z,100074.53
2023-03-06T11:33:15.343Z,100074.53
2023-03-06T11:35:59.724Z,100071.09
2023-03-06T11:38:40.387Z,100066.81
2023-03-06T11:41:22.298Z,100064.22
2023-03-06T11:44:01.208Z,100060.84
2023-03-06T11:46:41.656Z,100063.41
2023-03-06T11:49:27.674Z,100065.97
2023-03-06T11:52:07.107Z,100061.59
2023-03-06T11:54:34.008Z,100064.25
2023-03-06T11:57:12.698Z,100061.66
2023-03-06T11:59:55.134Z,100053.06
2023-03-06T12:02:42.990Z,100052.31
2023-03-06T12:05:34.137Z,100048.91
2023-03-06T12:08:45.378Z,100044.63
2023-03-06T12:11:22.571Z,100048.13
2023-03-06T12:14:30.910Z,100043.84
2023-03-06T12:17:21.504Z,100037.81
2023-03-06T12:20:32.962Z,100037.00
2023-03-06T12:23:16.609Z,100035.34
2023-03-06T12:25:57.407Z,100024.13
2023-03-06T12:28:46.433Z,100037.09
2023-03-06T12:31:43.787Z,100034.53
2023-03-06T12:34:35.213Z,100027.59
2023-03-06T12:37:18.230Z,100037.97
2023-03-06T12:40:28.502Z,100033.63
2023-03-06T12:44:03.000Z,100029.41
2023-03-06T12:46:30.541Z,100039.00
2023-03-06T12:49:31.447Z,100042.50
2023-03-06T12:52:01.134Z,100037.38
2023-03-06T12:54:31.500Z,100037.44
2023-03-06T12:57:00.472Z,100042.72
2023-03-06T12:59:47.989Z,100031.59
2023-03-06T13:02:41.479Z,100033.38
2023-03-06T13:05:38.008Z,100025.66
2023-03-06T13:08:10.439Z,100041.25
2023-03-06T13:10:40.179Z,100027.47
2023-03-06T13:13:34.493Z,100026.59
2023-03-06T13:16:22.580Z,100020.53
2023-03-06T13:18:56.147Z,100018.81
2023-03-06T13:21:41.766Z,100027.50
2023-03-06T13:24:21.372Z,100033.56
2023-03-06T13:26:56.407Z,100025.78
2023-03-06T13:29:38.510Z,100027.53
2023-03-06T13:32:17.348Z,100028.44
2023-03-06T13:34:50.115Z,100021.56
2023-03-06T13:37:16.906Z,100026.75
2023-03-06T13:39:55.292Z,100018.09
2023-03-06T13:42:35.229Z,100018.09
2023-03-06T13:45:39.036Z,100019.78
2023-03-06T13:48:30.345Z,100018.94
2023-03-06T13:50:55.517Z,100011.97
2023-03-06T13:53:52.711Z,100023.19
2023-03-06T13:56:54.477Z,100018.03
2023-03-06T14:00:10.181Z,100016.28
2023-03-06T14:03:07.821Z,100012.84
2023-03-06T14:05:47.720Z,100009.38
2023-03-06T14:08:31.455Z,100005.03
2023-03-06T14:11:03.986Z,100006.81
2023-03-06T14:13:47.250Z,100001.59
2023-03-06T14:16:25.436Z,99993.81
2023-03-06T14:18:55.544Z,99991.22
2023-03-06T14:21:31.967Z,99984.31
2023-03-06T14:24:02.110Z,99981.69
2023-03-06T14:26:39.742Z,99979.09
2023-03-06T14:29:29.050Z,99975.66
2023-03-06T14:31:58.917Z,99964.44
2023-03-06T14:34:33.172Z,99976.53
2023-03-06T14:37:05.872Z,99987.75
2023-03-06T14:39:40.670Z,99981.72
2023-03-06T14:42:27.032Z,99983.44
2023-03-06T14:45:13.192Z,99980.00
2023-03-06T14:47:40.084Z,99981.72
2023-03-06T14:50:40.972Z,99977.38
2023-03-06T14:53:23.184Z,99977.41
2023-03-06T14:55:57.950Z,99979.97
2023-03-06T14:58:34.417Z,99973.94
2023-03-06T15:01:08.767Z,99974.78
2023-03-06T15:03:48.215Z,99975.66
2023-03-06T15:06:22.934Z,99972.16
2023-03-06T15:09:08.432Z,99969.56
2023-03-06T15:12:09.139Z,99973.81
2023-03-06T15:14:38.556Z,99978.97
2023-03-06T15:17:17.578Z,99981.56
2023-03-06T15:19:46.943Z,99971.19
2023-03-06T15:22:41.073Z,99968.53
2023-03-06T15:25:27.516Z,99976.28
2023-03-06T15:28:04.427Z,99962.41
2023-03-06T15:30:34.851Z,99944.22
2023-03-06T15:33:19.659Z,99972.72
2023-03-06T15:36:04.997Z,99967.50
2023-03-06T15:38:46.772Z,99968.34
2023-03-06T15:41:31.789Z,99974.34
2023-03-06T15:44:01.042Z,99973.50
2023-03-06T15:46:28.699Z,99976.03
2023-03-06T15:49:04.268Z,99978.59
2023-03-06T15:51:32.474Z,99986.31
2023-03-06T15:54:11.972Z,99979.38
2023-03-06T15:56:42.243Z,99977.63
2023-03-06T15:59:22.360Z,99981.88
2023-03-06T16:01:50.536Z,99983.59
2023-03-06T16:04:18.491Z,99984.41
2023-03-06T16:06:45.945Z,99978.34
2023-03-06T16:09:13.726Z,99987.84
2023-03-06T16:11:47.072Z,99986.94
2023-03-06T16:14:23.794Z,99975.63
2023-03-06T16:16:56.574Z,99979.13
2023-03-06T16:19:27.414Z,99991.13
2023-03-06T16:21:56.254Z,99989.34
2023-03-06T16:24:24.779Z,99985.84
2023-03-06T16:26:53.783Z,99988.38
2023-03-06T16:29:25.140Z,99990.06
2023-03-06T16:31:52.363Z,99985.66
2023-03-06T16:34:19.798Z,99981.31
2023-03-06T16:36:48.499Z,99993.31
2023-03-06T16:39:18.274Z,99988.94
2023-03-06T16:41:49.329Z,99988.06
2023-03-06T16:44:16.399Z,99990.59
2023-03-06T16:46:45.969Z,99988.78
2023-03-06T16:49:26.274Z,99982.69
2023-03-06T16:51:54.014Z,99981.69
2023-03-06T16:54:23.149Z,99988.53
2023-03-06T16:56:50.091Z,99987.66
2023-03-06T16:59:17.078Z,99983.25
2023-03-06T17:01:44.063Z,99984.91
2023-03-06T17:04:11.428Z,99991.78
2023-03-06T17:06:39.186Z,99994.25
2023-03-06T17:09:06.666Z,99988.97
2023-03-06T17:11:35.963Z,99992.44
2023-03-06T17:14:02.828Z,99996.66
2023-03-06T17:16:29.728Z,99994.03
2023-03-06T17:18:58.156Z,99983.53
2023-03-06T17:21:26.916Z,99999.09
2023-03-06T17:23:53.816Z,99984.25
2023-03-06T17:26:20.706Z,99988.50
2023-03-06T17:28:47.811Z,100003.25
2023-03-06T17:31:27.012Z,100004.03
2023-03-06T17:33:59.098Z,99991.94
2023-03-06T17:36:27.581Z,99991.00
2023-03-06T17:38:59.554Z,100003.94
2023-03-06T17:41:27.094Z,100000.44
2023-03-06T17:43:58.257Z,100001.28
2023-03-06T17:46:25.523Z,100012.44
2023-03-06T17:48:52.421Z,100001.16
2023-03-06T17:51:19.330Z,100008.09
2023-03-06T17:53:46.250Z,100002.00
2023-03-06T17:56:15.031Z,100004.50
2023-03-06T17:58:41.917Z,100009.66
2023-03-06T18:01:21.264Z,100006.16
2023-03-06T18:03:50.134Z,100006.13
2023-03-06T18:06:18.277Z,100011.22
2023-03-06T18:08:45.917Z,100004.31
2023-03-06T18:11:13.500Z,100003.41
2023-03-06T18:13:43.323Z,100008.53
2023-03-06T18:16:13.340Z,99996.41
2023-03-06T18:18:40.393Z,100010.16
2023-03-06T18:21:13.695Z,100014.41
2023-03-06T18:23:41.466Z,100001.47
2023-03-06T18:26:14.140Z,100001.44
2023-03-06T18:28:44.559Z,99997.09
2023-03-06T18:31:37.084Z,99997.91
2023-03-06T18:34:10.500Z,99973.63
2023-03-06T18:36:38.412Z,99991.00
2023-03-06T18:39:08.611Z,99994.38
2023-03-06T18:41:36.337Z,99984.03
2023-03-06T18:44:03.616Z,99990.91
2023-03-06T18:46:38.333Z,99982.19
2023-03-06T18:49:05.917Z,99983.00
2023-03-06T18:51:33.514Z,99996.81
2023-03-06T18:54:02.502Z,99995.88
2023-03-06T18:56:29.405Z,99997.59
2023-03-06T18:58:59.936Z,100004.44
2023-03-06T19:01:30.618Z,99992.34
2023-03-06T19:04:05.007Z,99999.16
2023-03-06T19:06:31.945Z,99997.41
2023-03-06T19:08:58.915Z,99988.69
2023-03-06T19:11:26.873Z,100001.56
2023-03-06T19:13:54.133Z,99998.84
2023-03-06T19:16:25.614Z,99983.28
2023-03-06T19:18:55.079Z,99998.75
2023-03-06T19:21:25.343Z,99991.84
2023-03-06T19:23:52.266Z,100000.34
2023-03-06T19:26:19.902Z,99991.69
2023-03-06T19:28:47.819Z,99990.75
2023-03-06T19:31:21.318Z,99982.94
2023-03-06T19:33:49.607Z,99988.97
2023-03-06T19:36:18.128Z,99983.72
2023-03-06T19:38:45.100Z,99977.63
2023-03-06T19:41:13.835Z,99984.47
2023-03-06T19:43:42.193Z,99964.56
2023-03-06T19:46:13.623Z,99978.34
2023-03-06T19:48:44.053Z,99971.44
2023-03-06T19:51:11.558Z,99954.78
2023-03-06T19:53:39.837Z,99968.75
2023-03-06T19:56:17.464Z,99965.88
2023-03-06T19:58:44.411Z,99974.75
2023-03-06T20:01:18.382Z,99967.84
2023-03-06T20:03:45.367Z,99965.16
2023-03-06T20:06:19.221Z,99964.22
2023-03-06T20:08:47.354Z,99956.44
2023-03-06T20:11:27.378Z,99959.78
2023-03-06T20:13:54.650Z,99963.19
2023-03-06T20:16:21.581Z,99962.25
2023-03-06T20:18:48.508Z,99960.47
2023-03-06T20:21:16.489Z,99966.44
2023-03-06T20:23:43.432Z,99962.09
2023-03-06T20:26:12.481Z,99956.84
2023-03-06T20:28:41.529Z,99955.97
2023-03-06T20:31:13.761Z,99955.91
2023-03-06T20:33:40.827Z,99956.75
2023-03-06T20:36:17.156Z,99949.84
2023-03-06T20:38:44.975Z,99937.69
2023-03-06T20:41:20.185Z,99948.13
2023-03-06T20:43:47.337Z,99939.41
2023-03-06T20:46:14.833Z,99950.72
2023-03-06T20:48:43.065Z,99952.38
2023-03-06T20:51:21.609Z,99946.38
2023-03-06T20:53:50.130Z,99945.50
2023-03-06T20:56:20.095Z,99939.41
2023-03-06T20:58:47.077Z,99949.75
2023-03-06T21:01:32.371Z,99940.25
2023-03-06T21:04:00.051Z,99944.53
2023-03-06T21:06:28.501Z,99928.19
2023-03-06T21:08:57.115Z,99912.59
2023-03-06T21:11:24.627Z,99941.09
2023-03-06T21:13:53.353Z,99927.22
2023-03-06T21:16:24.059Z,99931.56
2023-03-06T21:18:51.606Z,99927.28
2023-03-06T21:21:23.432Z,99922.94
2023-03-06T21:23:50.874Z,99924.72
2023-03-06T21:26:21.691Z,99923.84
2023-03-06T21:28:49.004Z,99900.44
2023-03-06T21:31:18.804Z,99911.75
2023-03-06T21:33:48.640Z,99916.03
2023-03-06T21:36:16.193Z,99908.31
2023-03-06T21:38:43.082Z,99911.69
2023-03-06T21:41:17.075Z,99906.47
2023-03-06T21:43:44.047Z,99903.81
2023-03-06T21:46:11.504Z,99898.66
2023-03-06T21:48:38.665Z,99889.13
2023-03-06T21:51:10.833Z,99888.25
2023-03-06T21:53:40.913Z,99883.06
2023-03-06T21:56:08.186Z,99863.91
2023-03-06T21:58:35.129Z,99884.66
2023-03-06T22:01:02.058Z,99876.91
2023-03-06T22:03:28.953Z,99868.25
2023-03-06T22:05:56.590Z,99869.94
2023-03-06T22:08:25.047Z,99865.59
2023-03-06T22:10:52.696Z,99852.56
2023-03-06T22:13:19.667Z,99862.03
2023-03-06T22:15:51.483Z,99859.38
2023-03-06T22:18:18.848Z,99861.94
2023-03-06T22:20:45.730Z,99845.59
2023-03-06T22:23:12.751Z,99838.63
2023-03-06T22:25:39.784Z,99844.69
2023-03-06T22:28:06.793Z,99833.34
2023-03-06T22:30:33.690Z,99835.16
2023-03-06T22:33:00.584Z,99828.25
2023-03-06T22:35:27.454Z,99832.53
2023-03-06T22:37:54.339Z,99827.34
2023-03-06T22:40:21.230Z,99826.41
2023-03-06T22:42:48.101Z,99823.84
2023-03-06T22:45:15.041Z,99817.00
2023-03-06T22:47:41.940Z,99822.97
2023-03-06T22:50:10.444Z,99809.91
2023-03-06T22:52:37.392Z,99818.63
2023-03-06T22:55:04.762Z,99815.22
2023-03-06T22:57:32.054Z,99811.78
2023-03-06T22:59:58.984Z,99816.03
2023-03-06T23:02:25.858Z,99806.59
2023-03-06T23:04:53.258Z,99802.31
2023-03-06T23:07:20.815Z,99804.91
2023-03-06T23:09:48.650Z,99797.19
2023-03-06T23:12:34.007Z,99789.41
2023-03-06T23:15:19.420Z,99793.72
2023-03-06T23:18:04.868Z,99792.84
2023-03-06T23:20:50.177Z,99785.94
2023-03-06T23:23:36.483Z,99787.66
2023-03-06T23:26:10.783Z,99779.03
2023-03-06T23:28:37.704Z,99779.09
2023-03-06T23:31:17.066Z,99767.97
2023-03-06T23:33:43.988Z,99765.38
2023-03-06T23:36:14.239Z,99755.13
2023-03-06T23:38:41.724Z,99750.78
2023-03-06T23:41:16.360Z,99741.28
2023-03-06T23:43:43.495Z,99755.84
2023-03-06T23:46:10.749Z,99740.38
2023-03-06T23:48:40.643Z,99722.19
2023-03-06T23:51:17.036Z,99727.47
2023-03-06T23:53:45.852Z,99730.03
2023-03-06T23:56:13.470Z,99724.00
2023-03-06T23:58:41.128Z,99722.22
